Time;durP1;ratioP1;P1;durP2;ratioP2;P2;SDS_P1;SDS_P2;PMS_P1;PMS_P2;Temp;Humidity;BMP_temperature;BMP_pressure;BME280_temperature;BME280_humidity;BME280_pressure;Samples;Min_cycle;Max_cycle;Signal;HPM_P1;HPM_P2
2022/01/19 00:00:16;;;;;;;12.90;6.68;;;6.90;95.40;;;;;;9186624;19;20015;-73
2022/01/19 00:03:24;;;;;;;14.13;6.28;;;6.80;95.40;;;;;;9186367;19;20014;-74
2022/01/19 00:06:29;;;;;;;12.90;6.47;;;6.80;95.40;;;;;;9181565;19;20515;-74
2022/01/19 00:09:34;;;;;;;17.95;6.60;;;6.80;95.40;;;;;;9182278;19;20018;-73
2022/01/19 00:12:45;;;;;;;13.60;6.32;;;6.80;95.40;;;;;;9181873;19;20014;-74
2022/01/19 00:15:51;;;;;;;14.70;6.35;;;6.80;95.40;;;;;;9186365;19;20403;-74
2022/01/19 00:18:58;;;;;;;13.48;6.60;;;6.80;95.40;;;;;;9184508;19;20577;-72
2022/01/19 00:22:03;;;;;;;11.07;5.68;;;6.80;95.40;;;;;;9185141;19;20024;-73
2022/01/19 00:25:10;;;;;;;15.40;6.47;;;6.70;95.40;;;;;;9186376;19;20017;-73
2022/01/19 00:28:15;;;;;;;13.20;7.00;;;6.70;95.40;;;;;;9181434;19;20018;-73
2022/01/19 00:31:20;;;;;;;14.20;6.78;;;6.70;95.40;;;;;;9180973;19;20018;-73
2022/01/19 00:34:30;;;;;;;15.57;7.05;;;6.70;95.40;;;;;;9183682;19;21318;-73
2022/01/19 00:37:35;;;;;;;14.90;6.40;;;6.70;95.40;;;;;;9183920;19;20595;-74
2022/01/19 00:40:42;;;;;;;14.15;6.25;;;6.70;95.30;;;;;;9185372;19;20010;-73
2022/01/19 00:43:50;;;;;;;13.98;6.82;;;6.70;95.40;;;;;;9184172;19;20018;-74
2022/01/19 00:46:55;;;;;;;15.52;6.65;;;6.70;95.60;;;;;;9183964;19;20037;-74
2022/01/19 00:50:03;;;;;;;12.90;6.78;;;6.60;95.30;;;;;;9180354;19;20472;-74
2022/01/19 00:53:09;;;;;;;13.45;6.40;;;6.60;95.30;;;;;;9176725;19;20019;-73
2022/01/19 00:56:14;;;;;;;17.42;7.15;;;6.60;95.30;;;;;;9182637;19;20029;-73
2022/01/19 00:59:19;;;;;;;12.50;6.05;;;6.60;95.30;;;;;;9181526;19;20424;-73
2022/01/19 01:02:24;;;;;;;11.38;5.97;;;6.50;95.20;;;;;;9184708;19;20044;-73
2022/01/19 01:05:32;;;;;;;15.77;6.32;;;6.50;95.20;;;;;;9181950;19;20052;-73
2022/01/19 01:08:40;;;;;;;16.00;7.15;;;6.50;95.20;;;;;;9181921;19;20026;-73
2022/01/19 01:11:58;;;;;;;17.98;7.95;;;6.40;95.20;;;;;;9180095;19;20014;-74
2022/01/19 01:18:22;;;;;;;14.63;6.70;;;6.30;95.20;;;;;;9179153;19;20006;-73
2022/01/19 01:21:34;;;;;;;14.90;6.75;;;6.30;95.40;;;;;;9180260;19;20018;-74
2022/01/19 01:24:39;;;;;;;13.55;6.78;;;6.30;95.20;;;;;;9182327;19;20026;-73
2022/01/19 01:27:48;;;;;;;11.45;6.28;;;6.20;95.10;;;;;;9182799;19;20018;-74
2022/01/19 01:30:57;;;;;;;11.93;6.43;;;6.10;95.10;;;;;;9182455;19;20016;-74
2022/01/19 01:34:02;;;;;;;15.20;6.88;;;6.10;95.10;;;;;;9183138;19;20007;-74
2022/01/19 01:37:09;;;;;;;12.55;6.13;;;6.10;95.10;;;;;;9178793;19;20006;-74
2022/01/19 01:40:15;;;;;;;9.95;6.25;;;6.00;95.10;;;;;;9179536;19;20078;-74
2022/01/19 01:43:24;;;;;;;16.15;6.90;;;5.90;95.00;;;;;;9179245;19;20041;-74
2022/01/19 01:46:42;;;;;;;17.10;6.47;;;5.90;95.10;;;;;;9179814;19;20073;-73
2022/01/19 01:53:26;;;;;;;14.00;6.63;;;5.80;95.00;;;;;;9178366;19;20010;-72
2022/01/19 01:53:26;;;;;;;12.20;6.07;;;5.80;95.00;;;;;;9174536;19;20022;-73
2022/01/19 01:56:31;;;;;;;11.73;6.22;;;5.80;95.10;;;;;;9177423;19;20031;-73
2022/01/19 01:59:42;;;;;;;14.52;6.35;;;5.70;95.00;;;;;;9178305;19;20010;-73
2022/01/19 02:03:26;;;;;;;13.27;6.40;;;5.70;95.00;;;;;;9175801;19;20018;-73
2022/01/19 02:06:48;;;;;;;12.35;6.25;;;5.60;95.00;;;;;;9176112;19;20101;-73
2022/01/19 02:10:04;;;;;;;10.05;5.88;;;5.50;95.00;;;;;;9176585;19;20022;-73
2022/01/19 02:16:37;;;;;;;11.55;5.95;;;5.50;95.00;;;;;;9177604;19;20018;-74
2022/01/19 02:23:14;;;;;;;8.25;5.15;;;5.40;95.00;;;;;;9179056;19;20535;-73
2022/01/19 02:26:26;;;;;;;7.60;4.60;;;5.30;95.00;;;;;;9179189;19;20055;-73
2022/01/19 02:43:07;;;;;;;12.18;5.10;;;5.10;95.30;;;;;;9176315;19;20029;-73
2022/01/19 02:49:32;;;;;;;11.15;6.22;;;5.00;95.00;;;;;;9179873;19;20019;-73
2022/01/19 02:52:40;;;;;;;13.13;7.00;;;4.90;95.00;;;;;;9179882;19;20011;-73
2022/01/19 02:55:46;;;;;;;14.75;8.38;;;4.90;95.00;;;;;;9176103;19;20350;-73
2022/01/19 02:58:59;;;;;;;15.68;8.43;;;4.80;95.00;;;;;;9175713;19;20007;-73
2022/01/19 03:08:47;;;;;;;17.08;7.97;;;4.70;95.10;;;;;;9176323;19;20015;-74
2022/01/19 03:11:57;;;;;;;12.50;7.75;;;4.70;95.10;;;;;;9176381;19;20023;-72
2022/01/19 03:15:03;;;;;;;22.13;9.10;;;4.70;95.20;;;;;;9177899;19;20383;-73
2022/01/19 03:18:08;;;;;;;19.05;9.82;;;4.70;95.20;;;;;;9178390;19;20021;-74
2022/01/19 03:21:14;;;;;;;19.92;10.15;;;4.70;95.20;;;;;;9175198;19;20015;-73
2022/01/19 03:24:22;;;;;;;21.40;10.60;;;4.60;95.10;;;;;;9174352;19;20041;-73
2022/01/19 03:27:28;;;;;;;23.15;10.35;;;4.60;95.10;;;;;;9179512;19;20022;-73
2022/01/19 03:30:33;;;;;;;20.83;10.27;;;4.60;95.10;;;;;;9184753;19;20508;-72
2022/01/19 03:33:38;;;;;;;21.02;10.05;;;4.60;95.20;;;;;;9186698;19;20082;-73
2022/01/19 03:36:43;;;;;;;15.73;9.98;;;4.50;95.20;;;;;;9186245;19;20030;-73
2022/01/19 03:39:53;;;;;;;23.27;10.25;;;4.50;95.20;;;;;;9186019;19;20037;-72
2022/01/19 03:43:05;;;;;;;23.95;10.63;;;4.50;95.20;;;;;;9183575;19;20007;-73
2022/01/19 03:46:43;;;;;;;24.77;10.07;;;4.50;95.20;;;;;;9182435;19;20019;-73
2022/01/19 03:49:48;;;;;;;20.73;10.43;;;4.50;95.20;;;;;;9183219;19;20010;-73
2022/01/19 03:52:53;;;;;;;21.75;10.43;;;4.50;95.30;;;;;;9181648;19;20015;-72
2022/01/19 03:56:02;;;;;;;18.23;9.25;;;4.50;95.30;;;;;;9187571;19;20475;-72
2022/01/19 03:59:07;;;;;;;20.55;10.15;;;4.50;95.30;;;;;;9185617;19;20010;-75
2022/01/19 04:02:12;;;;;;;16.83;9.35;;;4.50;95.30;;;;;;9183982;19;20018;-73
2022/01/19 04:05:22;;;;;;;18.13;9.65;;;4.50;95.30;;;;;;9185529;19;20010;-73
2022/01/19 04:08:28;;;;;;;15.82;9.32;;;4.50;95.30;;;;;;9183592;19;20025;-73
2022/01/19 04:11:36;;;;;;;18.50;9.18;;;4.50;95.30;;;;;;9182440;19;20394;-73
2022/01/19 04:14:41;;;;;;;15.35;8.77;;;4.50;95.30;;;;;;9181671;19;20011;-73
2022/01/19 04:17:51;;;;;;;15.75;8.43;;;4.50;95.20;;;;;;9183249;19;20078;-73
2022/01/19 04:20:56;;;;;;;17.65;8.80;;;4.50;95.20;;;;;;9183082;19;20053;-73
2022/01/19 04:24:04;;;;;;;15.60;8.75;;;4.50;95.20;;;;;;9183935;19;20018;-73
2022/01/19 04:30:31;;;;;;;16.63;8.93;;;4.40;95.10;;;;;;9185074;19;20022;-72
2022/01/19 04:33:43;;;;;;;15.93;8.70;;;4.40;95.10;;;;;;9180824;19;20010;-72
2022/01/19 04:37:23;;;;;;;17.25;9.32;;;4.30;95.10;;;;;;9181496;19;20015;-73
2022/01/19 04:44:23;;;;;;;20.05;8.73;;;4.30;95.10;;;;;;9180721;19;20018;-73
2022/01/19 04:48:06;;;;;;;13.95;8.60;;;4.30;95.10;;;;;;9182474;19;20025;-72
2022/01/19 04:54:45;;;;;;;12.32;7.72;;;4.20;95.10;;;;;;9178856;19;20010;-72
2022/01/19 05:04:55;;;;;;;12.27;7.45;;;4.10;95.10;;;;;;9180959;19;20029;-73
2022/01/19 05:08:14;;;;;;;13.07;7.18;;;4.00;95.10;;;;;;9181703;19;20029;-72
2022/01/19 05:14:41;;;;;;;13.32;5.80;;;4.00;95.10;;;;;;9182521;19;20040;-72
2022/01/19 05:17:49;;;;;;;6.85;4.97;;;4.00;95.10;;;;;;9182785;19;20135;-72
2022/01/19 05:20:54;;;;;;;16.40;5.22;;;3.90;95.10;;;;;;9179191;19;20034;-72
2022/01/19 05:24:20;;;;;;;7.88;4.85;;;3.90;95.10;;;;;;9179992;19;20021;-72
2022/01/19 05:27:43;;;;;;;7.85;4.03;;;3.90;95.20;;;;;;9179716;19;20030;-73
2022/01/19 05:30:48;;;;;;;6.88;3.67;;;3.80;95.20;;;;;;9179272;19;20357;-72
2022/01/19 05:33:57;;;;;;;5.82;3.60;;;3.80;95.20;;;;;;9180443;19;20014;-72
2022/01/19 05:37:07;;;;;;;7.53;3.70;;;3.80;95.20;;;;;;9181882;19;20018;-73
2022/01/19 05:40:29;;;;;;;5.97;3.60;;;3.80;95.20;;;;;;9179067;19;20557;-72
2022/01/19 05:43:35;;;;;;;5.25;4.22;;;3.80;95.30;;;;;;9181213;19;20024;-72
2022/01/19 05:46:42;;;;;;;4.65;3.70;;;3.80;95.60;;;;;;9180307;19;20023;-72
2022/01/19 05:49:50;;;;;;;5.57;3.65;;;3.70;95.30;;;;;;9176201;19;20033;-72
2022/01/19 05:53:00;;;;;;;5.28;4.40;;;3.80;95.30;;;;;;9175536;19;20490;-73
2022/01/19 05:56:05;;;;;;;6.15;4.53;;;3.80;95.40;;;;;;9178618;19;20467;-73
2022/01/19 05:59:18;;;;;;;5.05;4.22;;;3.80;95.40;;;;;;9178634;19;20095;-73
2022/01/19 06:02:23;;;;;;;5.18;4.25;;;3.80;95.40;;;;;;9179400;19;20018;-73
2022/01/19 06:05:31;;;;;;;7.43;5.13;;;3.90;95.50;;;;;;9180048;19;20371;-73
2022/01/19 06:09:10;;;;;;;5.97;4.88;;;3.80;95.40;;;;;;9179587;19;20030;-72
2022/01/19 06:12:16;;;;;;;5.47;4.85;;;3.90;95.50;;;;;;9180662;19;20086;-73
2022/01/19 06:15:21;;;;;;;5.50;4.85;;;3.90;95.50;;;;;;9178374;19;20022;-74
2022/01/19 06:18:26;;;;;;;7.18;5.45;;;3.90;95.50;;;;;;9177702;19;20026;-73
2022/01/19 06:21:34;;;;;;;7.65;5.90;;;3.90;95.50;;;;;;9178958;19;20051;-74
2022/01/19 06:24:41;;;;;;;5.85;5.25;;;4.00;95.50;;;;;;9177616;19;20010;-73
2022/01/19 06:27:46;;;;;;;5.90;5.30;;;4.00;95.60;;;;;;9180053;19;20102;-73
2022/01/19 06:30:51;;;;;;;6.90;5.80;;;4.00;95.50;;;;;;9179931;19;20709;-73
2022/01/19 06:33:56;;;;;;;6.65;5.65;;;4.10;95.80;;;;;;9179974;19;20015;-73
2022/01/19 06:37:15;;;;;;;6.80;5.70;;;4.10;95.50;;;;;;9176482;19;20007;-74
2022/01/19 06:40:27;;;;;;;7.60;6.03;;;4.10;95.50;;;;;;9176268;19;20066;-74
2022/01/19 06:43:32;;;;;;;6.88;5.63;;;4.20;95.50;;;;;;9176612;19;20764;-73
2022/01/19 06:46:38;;;;;;;7.75;6.00;;;4.20;95.60;;;;;;9177666;19;20381;-74
2022/01/19 06:49:43;;;;;;;7.50;6.38;;;4.20;95.60;;;;;;9179151;19;20019;-73
2022/01/19 06:52:53;;;;;;;7.85;6.63;;;4.30;95.60;;;;;;9178394;19;20109;-73
2022/01/19 06:55:58;;;;;;;9.63;6.68;;;4.30;95.70;;;;;;9179356;19;20022;-74
2022/01/19 06:59:03;;;;;;;8.32;6.25;;;4.30;95.60;;;;;;9175874;19;20007;-74
2022/01/19 07:02:17;;;;;;;8.27;6.70;;;4.30;95.50;;;;;;9179570;19;20104;-73
2022/01/19 07:05:27;;;;;;;8.73;6.78;;;4.40;95.60;;;;;;9184786;19;20014;-73
2022/01/19 07:08:44;;;;;;;8.60;6.80;;;4.40;95.60;;;;;;9184969;19;20048;-74
2022/01/19 07:11:51;;;;;;;10.20;6.72;;;4.40;95.60;;;;;;9186749;19;20022;-73
2022/01/19 07:14:57;;;;;;;7.65;6.50;;;4.50;95.60;;;;;;9180598;19;20034;-73
2022/01/19 07:18:02;;;;;;;10.15;7.25;;;4.50;95.60;;;;;;9184955;19;20018;-73
2022/01/19 07:21:12;;;;;;;9.30;6.80;;;4.50;95.60;;;;;;9179672;19;20022;-73
2022/01/19 07:24:28;;;;;;;9.75;7.10;;;4.50;95.50;;;;;;9180381;19;20103;-73
2022/01/19 07:27:33;;;;;;;12.65;7.95;;;4.50;95.50;;;;;;9176333;19;20025;-73
2022/01/19 07:30:40;;;;;;;13.18;8.27;;;4.50;95.50;;;;;;9182302;19;20022;-74
2022/01/19 07:33:46;;;;;;;11.60;8.15;;;4.60;95.50;;;;;;9184051;19;20801;-73
2022/01/19 07:36:54;;;;;;;16.27;8.30;;;4.60;95.50;;;;;;9182174;19;20021;-73
2022/01/19 07:40:02;;;;;;;10.20;7.68;;;4.60;95.50;;;;;;9184311;19;20018;-74
2022/01/19 07:43:09;;;;;;;10.88;7.60;;;4.60;95.50;;;;;;9184518;19;20011;-75
2022/01/19 07:46:40;;;;;;;12.65;8.07;;;4.60;95.50;;;;;;9186529;19;20054;-73
2022/01/19 07:50:04;;;;;;;14.30;8.18;;;4.70;95.50;;;;;;9181651;19;20015;-73
2022/01/19 07:53:19;;;;;;;12.98;8.55;;;4.70;95.50;;;;;;9179843;19;20874;-74
2022/01/19 07:56:44;;;;;;;12.60;8.43;;;4.70;95.50;;;;;;9182446;19;20029;-73
2022/01/19 08:00:06;;;;;;;11.98;8.38;;;4.70;95.50;;;;;;9182094;19;20078;-74
2022/01/19 08:03:20;;;;;;;13.02;7.43;;;4.70;95.50;;;;;;9184713;19;20437;-74
2022/01/19 08:06:47;;;;;;;12.23;7.78;;;4.70;95.50;;;;;;9183762;19;20033;-74
2022/01/19 08:09:53;;;;;;;11.85;8.55;;;4.70;95.50;;;;;;9182820;19;20456;-74
2022/01/19 08:13:02;;;;;;;15.15;7.88;;;4.80;95.60;;;;;;9183929;19;20476;-73
2022/01/19 08:16:08;;;;;;;14.73;8.40;;;4.80;95.50;;;;;;9185954;19;20363;-73
2022/01/19 08:19:15;;;;;;;12.25;7.90;;;4.80;95.50;;;;;;9184930;19;20102;-74
2022/01/19 08:22:20;;;;;;;14.23;8.38;;;4.80;95.60;;;;;;9184097;19;20401;-72
2022/01/19 08:25:52;;;;;;;12.82;8.75;;;4.80;95.50;;;;;;9181272;19;20035;-73
2022/01/19 08:29:00;;;;;;;12.90;8.52;;;4.80;95.50;;;;;;9183651;19;20460;-73
2022/01/19 08:32:06;;;;;;;12.02;7.97;;;4.80;95.50;;;;;;9182469;19;20465;-73
2022/01/19 08:35:51;;;;;;;15.18;9.25;;;4.80;95.50;;;;;;9182718;19;20068;-73
2022/01/19 08:39:07;;;;;;;14.48;9.18;;;4.80;95.50;;;;;;9184864;19;20340;-74
2022/01/19 08:42:15;;;;;;;15.02;9.38;;;4.90;95.50;;;;;;9184975;19;20069;-73
2022/01/19 08:45:24;;;;;;;16.08;9.90;;;4.90;95.50;;;;;;9182258;19;20442;-74
2022/01/19 08:48:30;;;;;;;18.40;9.30;;;4.90;95.50;;;;;;9180192;19;21395;-73
2022/01/19 08:51:48;;;;;;;16.73;8.95;;;4.90;95.50;;;;;;9179719;19;20035;-73
2022/01/19 08:54:57;;;;;;;18.80;10.13;;;4.90;95.50;;;;;;9177461;19;20064;-73
2022/01/19 08:58:02;;;;;;;16.52;10.18;;;4.90;95.50;;;;;;9181774;19;20014;-73
2022/01/19 09:01:12;;;;;;;17.42;9.68;;;4.90;95.50;;;;;;9178199;19;20022;-73
2022/01/19 09:04:23;;;;;;;17.33;9.68;;;4.90;95.50;;;;;;9182784;19;20367;-74
2022/01/19 09:07:31;;;;;;;16.10;9.68;;;4.90;95.50;;;;;;9182381;19;20102;-72
2022/01/19 09:10:37;;;;;;;18.23;9.23;;;4.90;95.50;;;;;;9184488;19;20014;-73
2022/01/19 09:13:44;;;;;;;15.73;9.50;;;4.90;95.50;;;;;;9182001;19;20052;-73
2022/01/19 09:16:56;;;;;;;18.13;10.02;;;4.90;95.50;;;;;;9180077;19;20023;-74
2022/01/19 09:20:04;;;;;;;18.55;9.15;;;4.90;95.50;;;;;;9180385;19;20011;-73
2022/01/19 09:23:10;;;;;;;14.73;9.50;;;4.90;95.50;;;;;;9181933;19;20563;-73
2022/01/19 09:26:15;;;;;;;14.05;8.88;;;5.00;95.50;;;;;;9179912;19;20010;-73
2022/01/19 09:29:23;;;;;;;14.45;9.57;;;4.90;95.50;;;;;;9182280;19;20021;-74
2022/01/19 09:32:33;;;;;;;18.67;9.40;;;5.00;95.50;;;;;;9180684;19;20731;-73
2022/01/19 09:36:06;;;;;;;16.20;9.48;;;5.00;95.50;;;;;;9181267;19;20089;-73
2022/01/19 09:39:11;;;;;;;17.98;9.05;;;5.00;95.50;;;;;;9180617;19;20014;-72
2022/01/19 09:42:16;;;;;;;11.65;8.15;;;5.00;95.50;;;;;;9177933;19;20010;-73
2022/01/19 09:45:21;;;;;;;14.35;8.80;;;5.00;95.50;;;;;;9179014;19;20022;-73
2022/01/19 09:48:36;;;;;;;15.00;9.25;;;5.00;95.50;;;;;;9179190;19;20460;-72
2022/01/19 09:51:43;;;;;;;15.50;9.38;;;5.00;95.50;;;;;;9173605;19;20014;-73
2022/01/19 09:54:47;;;;;;;16.83;9.68;;;5.00;95.50;;;;;;9179941;19;20014;-73
2022/01/19 09:57:53;;;;;;;14.60;9.02;;;5.00;95.40;;;;;;9182160;19;20018;-73
2022/01/19 10:00:58;;;;;;;17.02;9.73;;;5.00;95.40;;;;;;9177785;19;20014;-73
2022/01/19 10:04:18;;;;;;;19.23;10.40;;;5.00;95.40;;;;;;9179562;19;20015;-73
2022/01/19 10:07:25;;;;;;;18.25;9.38;;;5.00;95.40;;;;;;9178718;19;20380;-73
2022/01/19 10:10:30;;;;;;;13.38;9.15;;;5.00;95.50;;;;;;9177695;19;20026;-73
2022/01/19 10:17:01;;;;;;;16.67;10.38;;;5.00;95.40;;;;;;9179193;19;20466;-73
2022/01/19 10:20:23;;;;;;;15.75;9.93;;;5.00;95.50;;;;;;9178599;19;20014;-73
2022/01/19 10:23:38;;;;;;;20.05;10.20;;;5.00;95.70;;;;;;9179673;19;20025;-73
2022/01/19 10:26:45;;;;;;;16.40;9.60;;;5.00;95.50;;;;;;9181089;19;20030;-73
2022/01/19 10:29:52;;;;;;;17.88;10.10;;;5.00;95.40;;;;;;9179255;19;20014;-73
2022/01/19 10:33:00;;;;;;;16.90;10.23;;;5.00;95.50;;;;;;9177162;19;20018;-73
2022/01/19 10:36:08;;;;;;;14.38;9.85;;;5.00;95.50;;;;;;9179467;19;20349;-72
2022/01/19 10:39:13;;;;;;;14.32;9.57;;;5.00;95.40;;;;;;9180004;19;20018;-73
2022/01/19 10:42:20;;;;;;;14.88;9.85;;;5.00;95.40;;;;;;9176080;19;20804;-73
2022/01/19 10:45:25;;;;;;;17.40;10.20;;;5.00;95.40;;;;;;9177653;19;20014;-72
2022/01/19 10:48:36;;;;;;;13.13;9.68;;;5.00;95.40;;;;;;9176991;19;20411;-73
2022/01/19 10:51:48;;;;;;;14.25;9.77;;;5.00;95.40;;;;;;9174182;19;20018;-73
2022/01/19 10:54:53;;;;;;;16.95;10.65;;;5.00;95.40;;;;;;9171871;19;20090;-73
2022/01/19 10:58:02;;;;;;;16.77;10.07;;;5.00;95.40;;;;;;9177049;19;20014;-73
2022/01/19 11:01:10;;;;;;;16.02;9.50;;;5.00;95.40;;;;;;9176207;19;20025;-73
2022/01/19 11:04:20;;;;;;;13.73;9.80;;;5.00;95.50;;;;;;9177709;19;20014;-74
2022/01/19 11:07:28;;;;;;;16.90;9.45;;;5.00;95.40;;;;;;9178981;19;20621;-73
2022/01/19 11:10:33;;;;;;;12.50;9.52;;;5.00;95.50;;;;;;9181197;19;20056;-73
2022/01/19 11:13:42;;;;;;;14.57;10.38;;;5.10;95.50;;;;;;9178361;19;20965;-73
2022/01/19 11:16:48;;;;;;;13.85;9.35;;;5.00;95.40;;;;;;9176502;19;20019;-74
2022/01/19 11:19:53;;;;;;;18.17;9.23;;;5.10;95.50;;;;;;9177564;19;20017;-75
2022/01/19 11:23:15;;;;;;;13.70;9.13;;;5.10;95.40;;;;;;9175037;19;20018;-74
2022/01/19 11:26:24;;;;;;;14.00;9.63;;;5.10;95.40;;;;;;9176964;19;20077;-74
2022/01/19 11:29:30;;;;;;;16.00;9.35;;;5.10;95.50;;;;;;9178405;19;20021;-74
2022/01/19 11:32:38;;;;;;;15.82;10.00;;;5.10;95.50;;;;;;9179996;19;20014;-74
2022/01/19 11:35:48;;;;;;;14.13;9.68;;;5.10;95.50;;;;;;9175203;19;20085;-74
2022/01/19 11:39:12;;;;;;;15.02;10.02;;;5.10;95.50;;;;;;9167761;19;20030;-73
2022/01/19 11:42:24;;;;;;;15.30;10.25;;;5.10;95.40;;;;;;9170621;19;20118;-74
2022/01/19 11:45:39;;;;;;;14.90;9.75;;;5.10;95.50;;;;;;9171369;19;20018;-74
2022/01/19 11:48:48;;;;;;;14.90;10.15;;;5.10;95.50;;;;;;9174643;19;20019;-74
2022/01/19 11:51:57;;;;;;;13.55;9.77;;;5.10;95.50;;;;;;9178810;19;20022;-74
2022/01/19 11:55:18;;;;;;;13.38;9.45;;;5.10;95.50;;;;;;9177471;19;20055;-74
2022/01/19 11:58:24;;;;;;;13.88;9.05;;;5.10;95.50;;;;;;9181818;19;20029;-74
2022/01/19 12:01:29;;;;;;;14.57;9.80;;;5.20;95.50;;;;;;9183671;19;20468;-74
2022/01/19 12:04:39;;;;;;;15.43;9.63;;;5.20;95.50;;;;;;9181528;19;20023;-74
2022/01/19 12:07:48;;;;;;;12.95;9.07;;;5.20;95.50;;;;;;9181818;19;20348;-74
2022/01/19 12:10:58;;;;;;;17.50;10.35;;;5.20;95.50;;;;;;9184137;19;20018;-74
2022/01/19 12:14:12;;;;;;;15.40;10.40;;;5.20;95.50;;;;;;9183480;19;20026;-74
2022/01/19 12:17:26;;;;;;;16.52;10.52;;;5.20;95.50;;;;;;9182576;19;20011;-74
2022/01/19 12:20:52;;;;;;;16.73;10.80;;;5.30;95.50;;;;;;9184824;19;20010;-74
2022/01/19 12:23:58;;;;;;;14.70;10.43;;;5.30;95.50;;;;;;9184597;19;21080;-73
2022/01/19 12:27:12;;;;;;;16.23;10.90;;;5.30;95.50;;;;;;9186335;19;20022;-73
2022/01/19 12:30:19;;;;;;;15.23;10.75;;;5.30;95.50;;;;;;9186937;19;20344;-73
2022/01/19 12:33:24;;;;;;;17.23;10.65;;;5.30;95.50;;;;;;9182083;19;20018;-74
2022/01/19 12:36:46;;;;;;;17.02;11.02;;;5.30;95.50;;;;;;9185283;19;20023;-74
2022/01/19 12:39:51;;;;;;;14.82;10.88;;;5.30;95.50;;;;;;9182914;19;20015;-74
2022/01/19 12:43:01;;;;;;;19.67;11.23;;;5.30;95.50;;;;;;9182259;19;20628;-73
2022/01/19 12:46:10;;;;;;;14.90;10.77;;;5.30;95.50;;;;;;9178416;19;20046;-74
2022/01/19 12:49:29;;;;;;;13.43;10.00;;;5.40;95.60;;;;;;9182125;19;20018;-73
2022/01/19 12:52:36;;;;;;;15.48;10.35;;;5.40;95.60;;;;;;9184072;19;20014;-74
2022/01/19 12:55:44;;;;;;;16.58;10.07;;;5.40;95.60;;;;;;9176776;19;20010;-73
2022/01/19 12:58:53;;;;;;;14.68;10.25;;;5.40;95.60;;;;;;9177990;19;20011;-74
2022/01/19 13:01:59;;;;;;;13.80;9.93;;;5.40;95.60;;;;;;9180738;19;20011;-73
2022/01/19 13:05:08;;;;;;;16.73;10.48;;;5.40;95.60;;;;;;9179127;19;20356;-74
2022/01/19 13:08:13;;;;;;;11.73;8.93;;;5.40;95.60;;;;;;9181659;19;20018;-73
2022/01/19 13:11:26;;;;;;;17.88;9.48;;;5.50;95.60;;;;;;9184029;19;20018;-73
2022/01/19 13:14:33;;;;;;;14.13;9.07;;;5.50;95.60;;;;;;9181100;19;20042;-75
2022/01/19 13:17:43;;;;;;;14.88;8.95;;;5.50;95.60;;;;;;9182803;19;20023;-72
2022/01/19 13:20:52;;;;;;;12.50;9.02;;;5.50;95.60;;;;;;9179075;19;20018;-73
2022/01/19 13:23:59;;;;;;;12.57;8.88;;;5.50;95.90;;;;;;9176955;19;20010;-73
2022/01/19 13:27:07;;;;;;;13.90;9.23;;;5.50;95.60;;;;;;9178409;19;20007;-73
2022/01/19 13:30:17;;;;;;;15.82;9.15;;;5.50;95.60;;;;;;9178811;19;20019;-74
2022/01/19 13:33:22;;;;;;;13.05;9.27;;;5.60;95.60;;;;;;9181711;19;20023;-73
2022/01/19 13:36:29;;;;;;;14.23;8.70;;;5.60;95.60;;;;;;9182419;19;20014;-73
2022/01/19 13:39:34;;;;;;;14.82;9.23;;;5.60;95.60;;;;;;9181968;19;20015;-73
2022/01/19 13:42:43;;;;;;;14.95;9.73;;;5.60;95.60;;;;;;9175952;19;20017;-72
2022/01/19 13:46:01;;;;;;;12.80;9.25;;;5.60;95.60;;;;;;9176704;19;20029;-74
2022/01/19 13:49:08;;;;;;;13.23;8.90;;;5.60;95.60;;;;;;9179182;19;20015;-73
2022/01/19 13:52:23;;;;;;;15.43;9.32;;;5.60;95.60;;;;;;9177325;19;20011;-73
2022/01/19 13:55:28;;;;;;;13.05;8.95;;;5.60;95.60;;;;;;9176088;19;20010;-73
2022/01/19 13:58:37;;;;;;;14.43;8.98;;;5.60;95.60;;;;;;9180947;19;20014;-74
2022/01/19 14:01:50;;;;;;;12.65;9.00;;;5.60;95.60;;;;;;9182822;19;20013;-73
2022/01/19 14:04:58;;;;;;;14.05;8.55;;;5.70;95.60;;;;;;9179948;19;20018;-73
2022/01/19 14:08:03;;;;;;;12.10;8.73;;;5.70;95.60;;;;;;9174738;19;20021;-73
2022/01/19 14:11:08;;;;;;;13.32;8.77;;;5.70;95.60;;;;;;9173557;19;20027;-74
2022/01/19 14:14:14;;;;;;;15.32;9.02;;;5.70;95.60;;;;;;9176524;19;20503;-73
2022/01/19 14:17:31;;;;;;;11.65;8.88;;;5.70;95.60;;;;;;9176768;19;20023;-75
2022/01/19 14:20:36;;;;;;;12.13;8.73;;;5.70;95.60;;;;;;9178270;19;20011;-74
2022/01/19 14:23:59;;;;;;;12.13;9.00;;;5.70;95.60;;;;;;9175401;19;20018;-73
2022/01/19 14:27:04;;;;;;;12.88;9.10;;;5.70;95.60;;;;;;9178980;19;20018;-74
2022/01/19 14:30:13;;;;;;;12.77;9.15;;;5.70;95.60;;;;;;9175531;19;20107;-73
2022/01/19 14:33:20;;;;;;;15.55;8.85;;;5.70;95.60;;;;;;9176032;19;20764;-73
2022/01/19 14:36:26;;;;;;;12.90;9.13;;;5.80;95.60;;;;;;9176072;19;20074;-74
2022/01/19 14:39:31;;;;;;;12.18;9.18;;;5.80;95.60;;;;;;9180660;19;20022;-73
2022/01/19 14:42:39;;;;;;;15.07;8.57;;;5.80;95.60;;;;;;9176504;19;20078;-73
2022/01/19 14:45:51;;;;;;;12.13;8.07;;;5.70;95.60;;;;;;9178697;19;20102;-73
2022/01/19 14:49:00;;;;;;;14.18;8.95;;;5.80;95.90;;;;;;9179079;19;20018;-73
2022/01/19 14:52:06;;;;;;;13.45;8.77;;;5.80;95.60;;;;;;9178628;19;20011;-73
2022/01/19 14:55:11;;;;;;;11.57;8.77;;;5.80;95.60;;;;;;9172682;19;20022;-73
2022/01/19 14:58:16;;;;;;;12.73;8.80;;;5.80;95.60;;;;;;9174407;19;20497;-73
2022/01/19 15:01:21;;;;;;;11.63;8.30;;;5.80;95.60;;;;;;9176188;19;20019;-73
2022/01/19 15:04:29;;;;;;;14.93;9.32;;;5.80;95.60;;;;;;9175365;19;20422;-73
2022/01/19 15:07:36;;;;;;;13.70;8.82;;;5.80;95.60;;;;;;9177010;19;20045;-74
2022/01/19 15:10:41;;;;;;;12.98;8.57;;;5.80;95.60;;;;;;9179175;19;20786;-74
2022/01/19 15:13:46;;;;;;;13.82;9.40;;;5.80;95.60;;;;;;9176498;19;20018;-73
2022/01/19 15:16:51;;;;;;;14.15;9.48;;;5.80;95.60;;;;;;9173314;19;20017;-73
2022/01/19 15:19:59;;;;;;;14.13;9.88;;;5.90;95.70;;;;;;9175825;19;20603;-74
2022/01/19 15:23:04;;;;;;;16.00;8.52;;;5.80;95.60;;;;;;9176950;19;20037;-73
2022/01/19 15:26:10;;;;;;;12.50;9.00;;;5.80;95.60;;;;;;9183760;19;20021;-74
2022/01/19 15:29:15;;;;;;;12.50;9.25;;;5.90;95.70;;;;;;9185292;19;20649;-73
2022/01/19 15:32:23;;;;;;;12.82;8.63;;;5.90;95.60;;;;;;9185497;19;20015;-72
2022/01/19 15:35:30;;;;;;;14.48;9.45;;;5.90;95.60;;;;;;9181963;19;20015;-73
2022/01/19 15:38:35;;;;;;;13.38;8.95;;;5.90;95.60;;;;;;9182379;19;20021;-72
2022/01/19 15:41:41;;;;;;;12.50;9.23;;;5.90;95.60;;;;;;9184847;19;20031;-73
2022/01/19 15:44:48;;;;;;;10.73;8.48;;;5.90;95.70;;;;;;9182907;19;20015;-72
2022/01/19 15:47:56;;;;;;;14.68;8.73;;;5.90;95.70;;;;;;9185094;19;20015;-73
2022/01/19 15:51:03;;;;;;;12.32;8.80;;;5.90;95.70;;;;;;9182636;19;20026;-73
2022/01/19 15:54:08;;;;;;;11.05;8.82;;;5.90;95.60;;;;;;9182069;19;20017;-73
2022/01/19 15:57:13;;;;;;;14.43;8.93;;;5.90;95.60;;;;;;9180248;19;20033;-73
2022/01/19 16:00:19;;;;;;;13.65;8.80;;;5.90;95.70;;;;;;9180579;19;20142;-73
2022/01/19 16:03:24;;;;;;;12.18;8.80;;;6.00;95.70;;;;;;9183117;19;20026;-73
2022/01/19 16:06:32;;;;;;;13.02;9.45;;;5.90;95.70;;;;;;9182499;19;20018;-73
2022/01/19 16:09:37;;;;;;;12.00;8.70;;;5.90;95.70;;;;;;9182276;19;20048;-73
2022/01/19 16:12:43;;;;;;;13.52;9.02;;;5.90;95.70;;;;;;9184232;19;20337;-72
2022/01/19 16:15:49;;;;;;;11.75;8.73;;;6.00;95.70;;;;;;9184558;19;20508;-73
2022/01/19 16:18:54;;;;;;;14.30;9.43;;;6.00;95.70;;;;;;9185030;19;20025;-72
2022/01/19 16:26:06;;;;;;;13.38;8.80;;;6.00;95.70;;;;;;9176723;19;20014;-74
2022/01/19 16:29:01;;;;;;;13.27;8.95;;;6.00;95.70;;;;;;9178115;19;20484;-75
2022/01/19 16:32:07;;;;;;;14.98;9.40;;;6.00;95.70;;;;;;9182482;19;20598;-74
2022/01/19 16:35:12;;;;;;;12.57;8.80;;;6.00;95.80;;;;;;9176722;19;20019;-74
2022/01/19 16:38:20;;;;;;;13.02;8.50;;;6.00;95.80;;;;;;9177703;19;20526;-74
2022/01/19 16:41:28;;;;;;;14.65;8.98;;;6.00;95.80;;;;;;9180268;19;20023;-75
2022/01/19 16:44:34;;;;;;;11.90;8.23;;;6.00;95.80;;;;;;9177351;19;20056;-74
2022/01/19 16:47:44;;;;;;;11.75;9.00;;;6.00;95.80;;;;;;9175177;19;20037;-74
2022/01/19 16:50:50;;;;;;;14.35;8.75;;;6.00;95.80;;;;;;9177705;19;20015;-74
2022/01/19 16:53:58;;;;;;;10.70;7.88;;;6.00;95.80;;;;;;9172928;19;20021;-73
2022/01/19 16:57:03;;;;;;;11.25;7.32;;;6.00;95.80;;;;;;9176461;19;20029;-75
2022/01/19 17:00:10;;;;;;;11.27;7.82;;;6.00;95.80;;;;;;9172909;19;20023;-74
2022/01/19 17:03:16;;;;;;;11.52;7.85;;;6.10;95.80;;;;;;9172730;19;20025;-73
2022/01/19 17:06:22;;;;;;;13.77;8.10;;;6.10;95.90;;;;;;9168138;19;20025;-74
2022/01/19 17:09:30;;;;;;;10.73;7.35;;;6.10;95.90;;;;;;9170475;19;20380;-74
2022/01/19 17:12:37;;;;;;;9.93;6.90;;;6.10;95.90;;;;;;9168028;19;20310;-75
2022/01/19 17:15:44;;;;;;;9.63;7.25;;;6.10;95.90;;;;;;9169522;19;20023;-74
2022/01/19 17:18:49;;;;;;;9.27;6.70;;;6.10;95.90;;;;;;9171490;19;20026;-74
2022/01/19 17:21:55;;;;;;;9.55;6.40;;;6.20;95.90;;;;;;9177967;19;20022;-74
2022/01/19 17:25:03;;;;;;;9.77;6.53;;;6.20;95.90;;;;;;9180686;19;20500;-74
2022/01/19 17:28:09;;;;;;;8.73;6.47;;;6.20;95.90;;;;;;9176528;19;20082;-75